Flight Track Log - Related Links

Times and Time Zones

All times are in EDT time to prevent confusion due to time zone crossing. See the EJM68 flight status page for this flight to view local times or setup timezone preferences in your user account.

Time Position Orientation Groundspeed Altitude Reporting Facility
EDT Latitude Longitude Course Direction KTS MPH feet Rate Location/Type
Thu 12:05:28 PM 42.6000 -87.9167 360° North 150 173 1,300  Level KMKE
Thu 12:05:46 PM 42.6167 -87.9167 360° North 168 193 1,900 2,278 Climbing KMKE
Thu 12:06:47 PM 42.6333 -87.9833 289° West 220 253 4,300 2,760 Climbing KMKE
Thu 12:08:16 PM 42.6614 -88.1189 286° West 261 300 8,800 3,276 Climbing Chicago Center
Thu 12:09:19 PM 42.6656 -88.2336 273° West 305 351 12,600 3,312 Climbing Chicago Center
Thu 12:10:21 PM 42.6503 -88.3642 261° West 354 407 15,700 1,597 Climbing Chicago Center
Thu 12:11:23 PM 42.5864 -88.4864 235° Southwest 415 478 15,900 97 Climbing Chicago Center
Thu 12:12:25 PM 42.4794 -88.6092 220° Southwest 419 482 15,900  Level Chicago Center
Thu 12:13:27 PM 42.4022 -88.7286 229° Southwest 421 484 15,900 48 Level Chicago Center
Thu 12:14:29 PM 42.3392 -88.8578 237° Southwest 415 478 16,000 48 Climbing Chicago Center
Thu 12:15:31 PM 42.2714 -88.9819 234° Southwest 411 473 16,000  Level Chicago Center
Thu 12:16:33 PM 42.2042 -89.1103 235° Southwest 415 478 16,000  Level Chicago Center
Thu 12:17:35 PM 42.1378 -89.2372 235° Southwest 415 478 16,000  Level Chicago Center
Thu 12:18:37 PM 42.0553 -89.3903 234° Southwest 415 478 16,000  Level Chicago Center
Thu 12:19:39 PM 41.9883 -89.5150 234° Southwest 414 476 16,000  Level Chicago Center
Thu 12:20:42 PM 41.9211 -89.6394 234° Southwest 413 475 16,000 -576 Level Chicago Center
Thu 12:21:44 PM 41.8542 -89.7606 233° Southwest 412 474 14,800 -1,548 Descending Chicago Center
Thu 12:22:46 PM 41.7900 -89.8778 234° Southwest 406 467 12,800 -1,935 Descending Chicago Center
Thu 12:23:48 PM 41.7544 -90.0086 250° West 390 449 10,800 -1,694 Descending Chicago Center
Thu 12:24:50 PM 41.7183 -90.1364 249° West 328 377 9,300 -1,403 Descending Chicago Center
Thu 12:25:52 PM 41.6911 -90.2322 249° West 283 326 7,900 -1,548 Descending Chicago Center
Thu 12:26:54 PM 41.6628 -90.3356 250° West 290 334 6,100 -1,210 Descending Chicago Center
Thu 12:27:56 PM 41.6344 -90.4275 248° West 278 320 5,400 -1,016 Descending Chicago Center
Thu 12:28:58 PM 41.6100 -90.5189 250° West 271 312 4,000 -968 Descending Chicago Center
Thu 12:30:00 PM 41.5578 -90.6069 232° Southwest 271 312 3,400 -677 Descending Chicago Center
Thu 12:31:02 PM 41.5022 -90.5994 174° South 232 267 2,600 -581 Descending Chicago Center
Thu 12:32:04 PM 41.4550 -90.5922 173° South 217 250 2,200 -387 Descending Chicago Center
Thu 12:34:00 PM 41.4483 -90.5075 147° Southeast  Level Estimated

Login

Don't have an account? Register now (free) for customized features, flight alerts, and more!